sensor_id;sensor_type;location;lat;lon;timestamp;P1;durP1;ratioP1;P2;durP2;ratioP2
50249;SDS011;36133;42.522;27.456;2023-05-13T00:01:02;28.50;;;19.20;;
50249;SDS011;36133;42.522;27.456;2023-05-13T00:03:27;40.78;;;19.20;;
50249;SDS011;36133;42.522;27.456;2023-05-13T00:05:53;31.17;;;17.60;;
50249;SDS011;36133;42.522;27.456;2023-05-13T00:08:19;30.48;;;18.42;;
50249;SDS011;36133;42.522;27.456;2023-05-13T00:10:44;32.20;;;17.23;;
50249;SDS011;36133;42.522;27.456;2023-05-13T00:13:10;25.98;;;17.05;;
50249;SDS011;36133;42.522;27.456;2023-05-13T00:15:35;30.27;;;17.38;;
50249;SDS011;36133;42.522;27.456;2023-05-13T00:18:01;27.92;;;17.08;;
50249;SDS011;36133;42.522;27.456;2023-05-13T00:20:26;31.88;;;17.95;;
50249;SDS011;36133;42.522;27.456;2023-05-13T00:22:52;27.35;;;17.35;;
50249;SDS011;36133;42.522;27.456;2023-05-13T00:25:17;30.35;;;17.13;;
50249;SDS011;36133;42.522;27.456;2023-05-13T00:27:43;25.35;;;16.05;;
50249;SDS011;36133;42.522;27.456;2023-05-13T00:30:08;27.38;;;16.48;;
50249;SDS011;36133;42.522;27.456;2023-05-13T00:32:34;30.17;;;17.15;;
50249;SDS011;36133;42.522;27.456;2023-05-13T00:35:00;34.15;;;17.30;;
50249;SDS011;36133;42.522;27.456;2023-05-13T00:37:25;29.13;;;16.40;;
50249;SDS011;36133;42.522;27.456;2023-05-13T00:39:51;23.77;;;15.40;;
50249;SDS011;36133;42.522;27.456;2023-05-13T00:42:16;24.75;;;15.40;;
50249;SDS011;36133;42.522;27.456;2023-05-13T00:44:42;26.13;;;14.63;;
50249;SDS011;36133;42.522;27.456;2023-05-13T00:47:09;22.55;;;14.65;;
50249;SDS011;36133;42.522;27.456;2023-05-13T00:49:35;30.30;;;15.77;;
50249;SDS011;36133;42.522;27.456;2023-05-13T00:52:01;28.50;;;14.98;;
50249;SDS011;36133;42.522;27.456;2023-05-13T00:54:27;28.80;;;15.30;;
50249;SDS011;36133;42.522;27.456;2023-05-13T00:56:54;24.60;;;15.55;;
50249;SDS011;36133;42.522;27.456;2023-05-13T00:59:24;29.42;;;17.13;;
50249;SDS011;36133;42.522;27.456;2023-05-13T01:04:49;32.30;;;17.50;;
50249;SDS011;36133;42.522;27.456;2023-05-13T01:11:10;34.58;;;20.52;;
50249;SDS011;36133;42.522;27.456;2023-05-13T01:13:13;47.03;;;24.27;;
50249;SDS011;36133;42.522;27.456;2023-05-13T01:15:48;45.85;;;25.05;;
50249;SDS011;36133;42.522;27.456;2023-05-13T01:18:19;49.10;;;23.30;;
50249;SDS011;36133;42.522;27.456;2023-05-13T01:20:49;34.42;;;20.95;;
50249;SDS011;36133;42.522;27.456;2023-05-13T01:23:14;34.63;;;20.85;;
50249;SDS011;36133;42.522;27.456;2023-05-13T01:25:40;33.92;;;19.50;;
50249;SDS011;36133;42.522;27.456;2023-05-13T01:28:06;31.40;;;18.15;;
50249;SDS011;36133;42.522;27.456;2023-05-13T01:30:33;29.65;;;18.33;;
50249;SDS011;36133;42.522;27.456;2023-05-13T01:32:59;29.27;;;17.45;;
50249;SDS011;36133;42.522;27.456;2023-05-13T01:35:25;35.75;;;17.35;;
50249;SDS011;36133;42.522;27.456;2023-05-13T01:37:52;28.45;;;16.08;;
50249;SDS011;36133;42.522;27.456;2023-05-13T01:40:21;26.95;;;15.18;;
50249;SDS011;36133;42.522;27.456;2023-05-13T01:42:46;28.80;;;14.32;;
50249;SDS011;36133;42.522;27.456;2023-05-13T01:45:12;20.70;;;12.82;;
50249;SDS011;36133;42.522;27.456;2023-05-13T01:47:38;20.92;;;12.43;;
50249;SDS011;36133;42.522;27.456;2023-05-13T01:50:04;19.00;;;13.43;;
50249;SDS011;36133;42.522;27.456;2023-05-13T01:52:30;19.27;;;12.60;;
50249;SDS011;36133;42.522;27.456;2023-05-13T01:54:55;22.13;;;13.18;;
50249;SDS011;36133;42.522;27.456;2023-05-13T01:57:21;22.63;;;13.73;;
50249;SDS011;36133;42.522;27.456;2023-05-13T01:59:46;22.27;;;13.60;;
50249;SDS011;36133;42.522;27.456;2023-05-13T02:02:12;19.83;;;13.38;;
50249;SDS011;36133;42.522;27.456;2023-05-13T02:04:37;19.02;;;13.68;;
50249;SDS011;36133;42.522;27.456;2023-05-13T02:07:03;21.60;;;14.07;;
50249;SDS011;36133;42.522;27.456;2023-05-13T02:09:28;22.17;;;13.75;;
50249;SDS011;36133;42.522;27.456;2023-05-13T02:11:54;24.23;;;14.18;;
50249;SDS011;36133;42.522;27.456;2023-05-13T02:14:19;21.50;;;14.40;;
50249;SDS011;36133;42.522;27.456;2023-05-13T02:16:45;28.67;;;16.05;;
50249;SDS011;36133;42.522;27.456;2023-05-13T02:19:10;29.95;;;17.15;;
50249;SDS011;36133;42.522;27.456;2023-05-13T02:21:36;27.88;;;18.00;;
50249;SDS011;36133;42.522;27.456;2023-05-13T02:24:01;31.58;;;18.83;;
50249;SDS011;36133;42.522;27.456;2023-05-13T02:26:27;31.08;;;18.77;;
50249;SDS011;36133;42.522;27.456;2023-05-13T02:28:53;47.40;;;21.60;;
50249;SDS011;36133;42.522;27.456;2023-05-13T02:31:18;49.45;;;25.88;;
50249;SDS011;36133;42.522;27.456;2023-05-13T02:33:44;55.28;;;26.35;;
50249;SDS011;36133;42.522;27.456;2023-05-13T02:36:09;57.60;;;26.45;;
50249;SDS011;36133;42.522;27.456;2023-05-13T02:38:35;43.83;;;23.48;;
50249;SDS011;36133;42.522;27.456;2023-05-13T02:41:00;36.17;;;20.08;;
50249;SDS011;36133;42.522;27.456;2023-05-13T02:43:26;28.25;;;17.08;;
50249;SDS011;36133;42.522;27.456;2023-05-13T02:45:52;26.13;;;16.10;;
50249;SDS011;36133;42.522;27.456;2023-05-13T02:48:18;26.90;;;16.85;;
50249;SDS011;36133;42.522;27.456;2023-05-13T02:50:43;28.85;;;15.65;;
50249;SDS011;36133;42.522;27.456;2023-05-13T02:53:09;32.50;;;17.35;;
50249;SDS011;36133;42.522;27.456;2023-05-13T02:55:35;28.60;;;18.95;;
50249;SDS011;36133;42.522;27.456;2023-05-13T02:58:00;31.98;;;17.42;;
50249;SDS011;36133;42.522;27.456;2023-05-13T03:00:26;26.83;;;16.00;;
50249;SDS011;36133;42.522;27.456;2023-05-13T03:02:51;23.02;;;13.90;;
50249;SDS011;36133;42.522;27.456;2023-05-13T03:05:17;28.38;;;14.93;;
50249;SDS011;36133;42.522;27.456;2023-05-13T03:07:42;27.55;;;16.67;;
50249;SDS011;36133;42.522;27.456;2023-05-13T03:10:08;29.05;;;16.75;;
50249;SDS011;36133;42.522;27.456;2023-05-13T03:12:33;29.55;;;15.95;;
50249;SDS011;36133;42.522;27.456;2023-05-13T03:14:59;26.88;;;15.10;;
50249;SDS011;36133;42.522;27.456;2023-05-13T03:17:24;31.63;;;15.10;;
50249;SDS011;36133;42.522;27.456;2023-05-13T03:19:50;25.00;;;13.63;;
50249;SDS011;36133;42.522;27.456;2023-05-13T03:22:16;22.08;;;12.70;;
50249;SDS011;36133;42.522;27.456;2023-05-13T03:24:42;18.42;;;12.45;;
50249;SDS011;36133;42.522;27.456;2023-05-13T03:27:08;24.83;;;14.77;;
50249;SDS011;36133;42.522;27.456;2023-05-13T03:29:33;41.00;;;21.25;;
50249;SDS011;36133;42.522;27.456;2023-05-13T03:31:59;41.20;;;23.60;;
50249;SDS011;36133;42.522;27.456;2023-05-13T03:34:25;45.90;;;21.67;;
50249;SDS011;36133;42.522;27.456;2023-05-13T03:36:50;24.30;;;13.35;;
50249;SDS011;36133;42.522;27.456;2023-05-13T03:39:16;18.80;;;11.63;;
50249;SDS011;36133;42.522;27.456;2023-05-13T03:41:41;17.30;;;11.40;;
50249;SDS011;36133;42.522;27.456;2023-05-13T03:44:07;20.10;;;11.60;;
50249;SDS011;36133;42.522;27.456;2023-05-13T03:46:32;21.70;;;13.70;;
50249;SDS011;36133;42.522;27.456;2023-05-13T03:48:58;19.80;;;12.40;;
50249;SDS011;36133;42.522;27.456;2023-05-13T03:51:23;27.05;;;13.77;;
50249;SDS011;36133;42.522;27.456;2023-05-13T03:53:49;23.27;;;14.40;;
50249;SDS011;36133;42.522;27.456;2023-05-13T03:56:15;26.25;;;16.27;;
50249;SDS011;36133;42.522;27.456;2023-05-13T03:58:40;33.45;;;17.95;;
50249;SDS011;36133;42.522;27.456;2023-05-13T04:01:06;35.13;;;18.38;;
50249;SDS011;36133;42.522;27.456;2023-05-13T04:03:32;33.35;;;19.33;;
50249;SDS011;36133;42.522;27.456;2023-05-13T04:05:58;41.65;;;22.13;;
50249;SDS011;36133;42.522;27.456;2023-05-13T04:08:24;38.53;;;19.17;;
50249;SDS011;36133;42.522;27.456;2023-05-13T04:10:50;31.02;;;16.75;;
50249;SDS011;36133;42.522;27.456;2023-05-13T04:13:15;33.28;;;17.45;;
50249;SDS011;36133;42.522;27.456;2023-05-13T04:15:41;26.58;;;14.70;;
50249;SDS011;36133;42.522;27.456;2023-05-13T04:18:06;24.90;;;13.77;;
50249;SDS011;36133;42.522;27.456;2023-05-13T04:20:32;20.33;;;12.35;;
50249;SDS011;36133;42.522;27.456;2023-05-13T04:23:04;20.10;;;12.27;;
50249;SDS011;36133;42.522;27.456;2023-05-13T04:25:30;24.83;;;12.85;;
50249;SDS011;36133;42.522;27.456;2023-05-13T04:27:55;19.98;;;11.48;;
50249;SDS011;36133;42.522;27.456;2023-05-13T04:30:21;21.52;;;11.45;;
50249;SDS011;36133;42.522;27.456;2023-05-13T04:32:46;25.58;;;11.98;;
50249;SDS011;36133;42.522;27.456;2023-05-13T04:35:12;20.15;;;11.30;;
50249;SDS011;36133;42.522;27.456;2023-05-13T04:37:37;22.90;;;13.75;;
50249;SDS011;36133;42.522;27.456;2023-05-13T04:40:03;31.00;;;20.20;;
50249;SDS011;36133;42.522;27.456;2023-05-13T04:42:29;45.75;;;29.38;;
50249;SDS011;36133;42.522;27.456;2023-05-13T04:44:54;53.15;;;35.17;;
50249;SDS011;36133;42.522;27.456;2023-05-13T04:47:21;28.55;;;17.80;;
50249;SDS011;36133;42.522;27.456;2023-05-13T04:49:46;26.35;;;14.82;;
50249;SDS011;36133;42.522;27.456;2023-05-13T04:52:12;19.25;;;10.40;;
50249;SDS011;36133;42.522;27.456;2023-05-13T04:54:38;18.25;;;9.75;;
50249;SDS011;36133;42.522;27.456;2023-05-13T04:57:04;16.17;;;8.65;;
50249;SDS011;36133;42.522;27.456;2023-05-13T04:59:30;12.70;;;8.85;;
50249;SDS011;36133;42.522;27.456;2023-05-13T05:01:56;18.75;;;9.13;;
50249;SDS011;36133;42.522;27.456;2023-05-13T05:04:21;17.27;;;9.02;;
50249;SDS011;36133;42.522;27.456;2023-05-13T05:06:48;15.68;;;9.13;;
50249;SDS011;36133;42.522;27.456;2023-05-13T05:09:14;18.42;;;9.00;;
50249;SDS011;36133;42.522;27.456;2023-05-13T05:11:39;16.58;;;9.13;;
50249;SDS011;36133;42.522;27.456;2023-05-13T05:14:05;14.27;;;9.07;;
50249;SDS011;36133;42.522;27.456;2023-05-13T05:16:30;16.00;;;9.13;;
50249;SDS011;36133;42.522;27.456;2023-05-13T05:18:56;15.93;;;9.65;;
50249;SDS011;36133;42.522;27.456;2023-05-13T05:21:21;17.33;;;9.38;;
50249;SDS011;36133;42.522;27.456;2023-05-13T05:23:47;17.85;;;9.20;;
50249;SDS011;36133;42.522;27.456;2023-05-13T05:26:12;17.27;;;10.10;;
50249;SDS011;36133;42.522;27.456;2023-05-13T05:28:38;20.15;;;9.80;;
50249;SDS011;36133;42.522;27.456;2023-05-13T05:31:06;18.35;;;9.07;;
50249;SDS011;36133;42.522;27.456;2023-05-13T05:33:32;19.17;;;10.18;;
50249;SDS011;36133;42.522;27.456;2023-05-13T05:35:57;23.73;;;10.07;;
50249;SDS011;36133;42.522;27.456;2023-05-13T05:38:23;20.40;;;11.30;;
50249;SDS011;36133;42.522;27.456;2023-05-13T05:40:49;20.48;;;10.95;;
50249;SDS011;36133;42.522;27.456;2023-05-13T05:43:14;23.10;;;11.10;;
50249;SDS011;36133;42.522;27.456;2023-05-13T05:45:40;18.77;;;10.23;;
50249;SDS011;36133;42.522;27.456;2023-05-13T05:48:06;18.75;;;10.40;;
50249;SDS011;36133;42.522;27.456;2023-05-13T05:50:32;19.92;;;10.90;;
50249;SDS011;36133;42.522;27.456;2023-05-13T05:52:58;26.13;;;10.02;;
50249;SDS011;36133;42.522;27.456;2023-05-13T05:55:24;24.77;;;11.55;;
50249;SDS011;36133;42.522;27.456;2023-05-13T05:57:52;22.92;;;11.57;;
50249;SDS011;36133;42.522;27.456;2023-05-13T06:00:20;22.38;;;12.45;;
50249;SDS011;36133;42.522;27.456;2023-05-13T06:02:46;23.90;;;11.80;;
50249;SDS011;36133;42.522;27.456;2023-05-13T06:05:13;18.13;;;10.50;;
50249;SDS011;36133;42.522;27.456;2023-05-13T06:07:38;19.98;;;11.15;;
50249;SDS011;36133;42.522;27.456;2023-05-13T06:10:04;21.90;;;11.02;;
50249;SDS011;36133;42.522;27.456;2023-05-13T06:12:30;24.08;;;12.88;;
50249;SDS011;36133;42.522;27.456;2023-05-13T06:14:56;23.58;;;15.70;;
50249;SDS011;36133;42.522;27.456;2023-05-13T06:17:22;22.25;;;14.95;;
50249;SDS011;36133;42.522;27.456;2023-05-13T06:19:48;26.85;;;15.65;;
50249;SDS011;36133;42.522;27.456;2023-05-13T06:22:13;22.13;;;14.18;;
50249;SDS011;36133;42.522;27.456;2023-05-13T06:24:39;20.60;;;13.43;;
50249;SDS011;36133;42.522;27.456;2023-05-13T06:27:07;23.48;;;12.68;;
50249;SDS011;36133;42.522;27.456;2023-05-13T06:29:32;23.48;;;14.50;;
50249;SDS011;36133;42.522;27.456;2023-05-13T06:31:57;22.15;;;13.32;;
50249;SDS011;36133;42.522;27.456;2023-05-13T06:34:23;24.50;;;13.57;;
50249;SDS011;36133;42.522;27.456;2023-05-13T06:36:48;20.92;;;12.02;;
50249;SDS011;36133;42.522;27.456;2023-05-13T06:39:14;26.67;;;16.10;;
50249;SDS011;36133;42.522;27.456;2023-05-13T06:41:40;21.40;;;12.00;;
50249;SDS011;36133;42.522;27.456;2023-05-13T06:44:06;23.80;;;12.35;;
50249;SDS011;36133;42.522;27.456;2023-05-13T06:46:32;25.98;;;14.98;;
50249;SDS011;36133;42.522;27.456;2023-05-13T06:48:58;19.65;;;11.77;;
50249;SDS011;36133;42.522;27.456;2023-05-13T06:51:24;17.95;;;10.43;;
50249;SDS011;36133;42.522;27.456;2023-05-13T06:53:54;17.52;;;10.63;;
50249;SDS011;36133;42.522;27.456;2023-05-13T06:56:20;20.75;;;10.77;;
50249;SDS011;36133;42.522;27.456;2023-05-13T06:58:50;16.48;;;10.45;;
50249;SDS011;36133;42.522;27.456;2023-05-13T07:01:19;18.77;;;10.68;;
50249;SDS011;36133;42.522;27.456;2023-05-13T07:03:44;18.80;;;10.90;;
50249;SDS011;36133;42.522;27.456;2023-05-13T07:06:10;15.43;;;10.05;;
50249;SDS011;36133;42.522;27.456;2023-05-13T07:08:36;19.25;;;10.07;;
50249;SDS011;36133;42.522;27.456;2023-05-13T07:11:02;15.07;;;9.70;;
50249;SDS011;36133;42.522;27.456;2023-05-13T07:13:28;16.98;;;10.05;;
50249;SDS011;36133;42.522;27.456;2023-05-13T07:16:00;15.38;;;9.65;;
50249;SDS011;36133;42.522;27.456;2023-05-13T07:18:29;14.85;;;9.32;;
50249;SDS011;36133;42.522;27.456;2023-05-13T07:20:54;14.10;;;8.82;;
50249;SDS011;36133;42.522;27.456;2023-05-13T07:23:23;20.42;;;9.10;;
50249;SDS011;36133;42.522;27.456;2023-05-13T07:25:49;15.45;;;9.48;;
50249;SDS011;36133;42.522;27.456;2023-05-13T07:28:19;14.55;;;8.25;;
50249;SDS011;36133;42.522;27.456;2023-05-13T07:30:45;15.20;;;8.02;;
50249;SDS011;36133;42.522;27.456;2023-05-13T07:33:14;13.30;;;8.57;;
50249;SDS011;36133;42.522;27.456;2023-05-13T07:35:40;12.43;;;6.55;;
50249;SDS011;36133;42.522;27.456;2023-05-13T07:38:07;10.93;;;6.25;;
50249;SDS011;36133;42.522;27.456;2023-05-13T07:40:35;14.52;;;6.55;;
50249;SDS011;36133;42.522;27.456;2023-05-13T07:43:00;11.98;;;6.72;;
50249;SDS011;36133;42.522;27.456;2023-05-13T07:45:26;9.90;;;5.90;;
50249;SDS011;36133;42.522;27.456;2023-05-13T07:47:52;9.35;;;5.97;;
50249;SDS011;36133;42.522;27.456;2023-05-13T07:50:20;18.27;;;6.85;;
50249;SDS011;36133;42.522;27.456;2023-05-13T07:52:46;9.05;;;6.20;;
50249;SDS011;36133;42.522;27.456;2023-05-13T07:55:14;11.82;;;5.88;;
50249;SDS011;36133;42.522;27.456;2023-05-13T07:57:40;7.35;;;5.57;;
50249;SDS011;36133;42.522;27.456;2023-05-13T08:00:09;17.33;;;6.45;;
50249;SDS011;36133;42.522;27.456;2023-05-13T08:02:40;14.05;;;5.88;;
50249;SDS011;36133;42.522;27.456;2023-05-13T08:05:07;8.30;;;4.97;;
50249;SDS011;36133;42.522;27.456;2023-05-13T08:07:32;11.75;;;5.43;;
50249;SDS011;36133;42.522;27.456;2023-05-13T08:09:58;11.88;;;5.30;;
50249;SDS011;36133;42.522;27.456;2023-05-13T08:12:23;7.43;;;4.20;;
50249;SDS011;36133;42.522;27.456;2023-05-13T08:14:49;4.55;;;2.95;;
50249;SDS011;36133;42.522;27.456;2023-05-13T08:17:15;5.68;;;2.40;;
50249;SDS011;36133;42.522;27.456;2023-05-13T08:19:43;6.50;;;3.08;;
50249;SDS011;36133;42.522;27.456;2023-05-13T08:22:10;5.85;;;2.90;;
50249;SDS011;36133;42.522;27.456;2023-05-13T08:24:35;8.70;;;3.00;;
50249;SDS011;36133;42.522;27.456;2023-05-13T08:27:01;6.57;;;3.10;;
50249;SDS011;36133;42.522;27.456;2023-05-13T08:29:29;8.30;;;2.95;;
50249;SDS011;36133;42.522;27.456;2023-05-13T08:31:55;6.05;;;3.25;;
50249;SDS011;36133;42.522;27.456;2023-05-13T08:34:20;7.32;;;3.25;;
50249;SDS011;36133;42.522;27.456;2023-05-13T08:36:46;5.80;;;2.83;;
50249;SDS011;36133;42.522;27.456;2023-05-13T08:39:12;7.25;;;3.05;;
50249;SDS011;36133;42.522;27.456;2023-05-13T08:41:37;10.02;;;4.00;;
50249;SDS011;36133;42.522;27.456;2023-05-13T08:44:04;9.32;;;3.08;;
50249;SDS011;36133;42.522;27.456;2023-05-13T08:46:31;10.20;;;2.90;;
50249;SDS011;36133;42.522;27.456;2023-05-13T08:48:59;5.97;;;2.65;;
50249;SDS011;36133;42.522;27.456;2023-05-13T08:51:25;4.50;;;3.03;;
50249;SDS011;36133;42.522;27.456;2023-05-13T08:53:51;4.95;;;2.80;;
50249;SDS011;36133;42.522;27.456;2023-05-13T08:56:19;12.10;;;3.55;;
50249;SDS011;36133;42.522;27.456;2023-05-13T08:58:46;4.13;;;2.80;;
50249;SDS011;36133;42.522;27.456;2023-05-13T09:01:12;4.47;;;3.10;;
50249;SDS011;36133;42.522;27.456;2023-05-13T09:03:41;7.40;;;2.75;;
50249;SDS011;36133;42.522;27.456;2023-05-13T09:06:26;4.18;;;2.47;;
50249;SDS011;36133;42.522;27.456;2023-05-13T09:08:53;16.95;;;3.03;;
50249;SDS011;36133;42.522;27.456;2023-05-13T09:11:19;5.20;;;3.10;;
50249;SDS011;36133;42.522;27.456;2023-05-13T09:13:55;6.22;;;2.65;;
50249;SDS011;36133;42.522;27.456;2023-05-13T09:16:24;9.02;;;2.72;;
50249;SDS011;36133;42.522;27.456;2023-05-13T09:19:04;19.05;;;3.20;;
50249;SDS011;36133;42.522;27.456;2023-05-13T09:21:32;5.22;;;2.45;;
50249;SDS011;36133;42.522;27.456;2023-05-13T09:24:08;7.05;;;2.30;;
50249;SDS011;36133;42.522;27.456;2023-05-13T09:26:35;5.60;;;2.50;;
50249;SDS011;36133;42.522;27.456;2023-05-13T09:29:14;6.78;;;2.22;;
50249;SDS011;36133;42.522;27.456;2023-05-13T09:31:55;5.53;;;2.20;;
50249;SDS011;36133;42.522;27.456;2023-05-13T09:34:25;4.30;;;2.20;;
50249;SDS011;36133;42.522;27.456;2023-05-13T09:37:04;2.83;;;2.10;;
50249;SDS011;36133;42.522;27.456;2023-05-13T09:39:40;5.07;;;2.42;;
50249;SDS011;36133;42.522;27.456;2023-05-13T09:44:41;6.40;;;2.10;;
50249;SDS011;36133;42.522;27.456;2023-05-13T09:47:14;5.50;;;2.63;;
50249;SDS011;36133;42.522;27.456;2023-05-13T09:49:42;9.88;;;2.67;;
50249;SDS011;36133;42.522;27.456;2023-05-13T09:52:08;5.90;;;2.40;;
50249;SDS011;36133;42.522;27.456;2023-05-13T09:54:36;4.03;;;2.67;;
50249;SDS011;36133;42.522;27.456;2023-05-13T09:57:11;4.93;;;2.80;;
50249;SDS011;36133;42.522;27.456;2023-05-13T09:59:37;7.55;;;2.70;;
50249;SDS011;36133;42.522;27.456;2023-05-13T10:02:04;5.68;;;2.65;;
50249;SDS011;36133;42.522;27.456;2023-05-13T10:04:31;4.45;;;2.50;;
50249;SDS011;36133;42.522;27.456;2023-05-13T10:06:57;4.75;;;2.75;;
50249;SDS011;36133;42.522;27.456;2023-05-13T10:09:24;4.65;;;2.30;;
50249;SDS011;36133;42.522;27.456;2023-05-13T10:11:51;4.15;;;2.70;;
50249;SDS011;36133;42.522;27.456;2023-05-13T10:14:17;9.02;;;2.95;;
50249;SDS011;36133;42.522;27.456;2023-05-13T10:16:43;5.75;;;2.60;;
50249;SDS011;36133;42.522;27.456;2023-05-13T10:19:11;11.15;;;2.80;;
50249;SDS011;36133;42.522;27.456;2023-05-13T10:21:37;5.47;;;2.42;;
50249;SDS011;36133;42.522;27.456;2023-05-13T10:24:04;4.25;;;2.40;;
50249;SDS011;36133;42.522;27.456;2023-05-13T10:26:31;5.53;;;2.70;;
50249;SDS011;36133;42.522;27.456;2023-05-13T10:28:57;4.40;;;2.78;;
50249;SDS011;36133;42.522;27.456;2023-05-13T10:31:23;4.32;;;2.65;;
50249;SDS011;36133;42.522;27.456;2023-05-13T10:33:51;6.80;;;2.80;;
50249;SDS011;36133;42.522;27.456;2023-05-13T10:36:35;4.20;;;2.75;;
50249;SDS011;36133;42.522;27.456;2023-05-13T10:42:06;7.00;;;2.53;;
50249;SDS011;36133;42.522;27.456;2023-05-13T10:44:41;7.82;;;2.53;;
50249;SDS011;36133;42.522;27.456;2023-05-13T10:47:10;4.97;;;2.50;;
50249;SDS011;36133;42.522;27.456;2023-05-13T10:49:36;10.85;;;3.25;;
50249;SDS011;36133;42.522;27.456;2023-05-13T10:52:05;5.53;;;2.88;;
50249;SDS011;36133;42.522;27.456;2023-05-13T10:54:36;6.22;;;2.90;;
50249;SDS011;36133;42.522;27.456;2023-05-13T10:57:04;6.93;;;2.85;;
50249;SDS011;36133;42.522;27.456;2023-05-13T10:59:30;3.10;;;2.80;;
50249;SDS011;36133;42.522;27.456;2023-05-13T11:01:59;4.68;;;2.78;;
50249;SDS011;36133;42.522;27.456;2023-05-13T11:04:27;3.90;;;2.85;;
50249;SDS011;36133;42.522;27.456;2023-05-13T11:06:52;6.28;;;2.90;;
50249;SDS011;36133;42.522;27.456;2023-05-13T11:11:55;8.43;;;2.88;;
50249;SDS011;36133;42.522;27.456;2023-05-13T11:14:25;10.20;;;3.03;;
50249;SDS011;36133;42.522;27.456;2023-05-13T11:16:52;14.43;;;3.42;;
50249;SDS011;36133;42.522;27.456;2023-05-13T11:19:25;10.32;;;2.80;;
50249;SDS011;36133;42.522;27.456;2023-05-13T11:21:51;5.18;;;2.50;;
50249;SDS011;36133;42.522;27.456;2023-05-13T11:24:21;6.13;;;2.85;;
50249;SDS011;36133;42.522;27.456;2023-05-13T11:26:49;3.60;;;2.53;;
50249;SDS011;36133;42.522;27.456;2023-05-13T11:32:15;5.88;;;2.92;;
50249;SDS011;36133;42.522;27.456;2023-05-13T11:35:22;7.22;;;2.85;;
50249;SDS011;36133;42.522;27.456;2023-05-13T11:37:52;6.57;;;2.78;;
50249;SDS011;36133;42.522;27.456;2023-05-13T11:40:22;16.83;;;2.80;;
50249;SDS011;36133;42.522;27.456;2023-05-13T11:42:49;8.00;;;2.50;;
50249;SDS011;36133;42.522;27.456;2023-05-13T11:45:23;5.20;;;2.42;;
50249;SDS011;36133;42.522;27.456;2023-05-13T11:47:49;8.32;;;2.40;;
50249;SDS011;36133;42.522;27.456;2023-05-13T11:50:20;8.68;;;2.13;;
50249;SDS011;36133;42.522;27.456;2023-05-13T11:52:50;4.97;;;2.20;;
50249;SDS011;36133;42.522;27.456;2023-05-13T11:55:24;6.78;;;2.45;;
50249;SDS011;36133;42.522;27.456;2023-05-13T11:57:55;13.55;;;2.85;;
50249;SDS011;36133;42.522;27.456;2023-05-13T12:00:29;4.88;;;2.28;;
50249;SDS011;36133;42.522;27.456;2023-05-13T12:02:58;5.00;;;1.90;;
50249;SDS011;36133;42.522;27.456;2023-05-13T12:05:25;7.10;;;2.50;;
50249;SDS011;36133;42.522;27.456;2023-05-13T12:07:53;5.60;;;2.33;;
50249;SDS011;36133;42.522;27.456;2023-05-13T12:10:21;6.70;;;2.53;;
50249;SDS011;36133;42.522;27.456;2023-05-13T12:12:49;5.65;;;2.25;;
50249;SDS011;36133;42.522;27.456;2023-05-13T12:15:16;9.15;;;2.45;;
50249;SDS011;36133;42.522;27.456;2023-05-13T12:17:44;5.47;;;2.15;;
50249;SDS011;36133;42.522;27.456;2023-05-13T12:20:11;7.28;;;2.20;;
50249;SDS011;36133;42.522;27.456;2023-05-13T12:28:11;9.02;;;2.70;;
50249;SDS011;36133;42.522;27.456;2023-05-13T12:30:48;3.05;;;2.40;;
50249;SDS011;36133;42.522;27.456;2023-05-13T12:33:17;5.25;;;2.20;;
50249;SDS011;36133;42.522;27.456;2023-05-13T12:35:47;4.05;;;2.00;;
50249;SDS011;36133;42.522;27.456;2023-05-13T12:38:15;4.20;;;2.28;;
50249;SDS011;36133;42.522;27.456;2023-05-13T12:40:42;3.72;;;2.30;;
50249;SDS011;36133;42.522;27.456;2023-05-13T12:43:09;8.82;;;2.47;;
50249;SDS011;36133;42.522;27.456;2023-05-13T12:45:36;7.85;;;2.42;;
50249;SDS011;36133;42.522;27.456;2023-05-13T12:48:03;6.95;;;2.50;;
50249;SDS011;36133;42.522;27.456;2023-05-13T12:50:29;4.97;;;2.60;;
50249;SDS011;36133;42.522;27.456;2023-05-13T12:52:55;8.13;;;2.45;;
50249;SDS011;36133;42.522;27.456;2023-05-13T12:55:21;5.20;;;2.70;;
50249;SDS011;36133;42.522;27.456;2023-05-13T12:57:55;4.47;;;2.90;;
50249;SDS011;36133;42.522;27.456;2023-05-13T13:00:21;7.05;;;2.75;;
50249;SDS011;36133;42.522;27.456;2023-05-13T13:02:47;5.68;;;2.60;;
50249;SDS011;36133;42.522;27.456;2023-05-13T13:05:12;5.57;;;3.47;;
50249;SDS011;36133;42.522;27.456;2023-05-13T13:07:38;6.53;;;2.75;;
50249;SDS011;36133;42.522;27.456;2023-05-13T13:10:06;4.57;;;2.97;;
50249;SDS011;36133;42.522;27.456;2023-05-13T13:12:32;6.78;;;2.58;;
50249;SDS011;36133;42.522;27.456;2023-05-13T13:15:00;4.82;;;2.20;;
50249;SDS011;36133;42.522;27.456;2023-05-13T13:17:26;9.88;;;2.88;;
50249;SDS011;36133;42.522;27.456;2023-05-13T13:19:51;5.60;;;2.13;;
50249;SDS011;36133;42.522;27.456;2023-05-13T13:22:17;5.72;;;2.40;;
50249;SDS011;36133;42.522;27.456;2023-05-13T13:24:43;4.75;;;2.30;;
50249;SDS011;36133;42.522;27.456;2023-05-13T13:27:09;6.35;;;2.20;;
50249;SDS011;36133;42.522;27.456;2023-05-13T13:29:35;4.82;;;2.35;;
50249;SDS011;36133;42.522;27.456;2023-05-13T13:32:01;5.30;;;2.20;;
50249;SDS011;36133;42.522;27.456;2023-05-13T13:34:27;6.38;;;2.28;;
50249;SDS011;36133;42.522;27.456;2023-05-13T13:36:52;7.07;;;2.35;;
50249;SDS011;36133;42.522;27.456;2023-05-13T13:39:18;4.32;;;2.10;;
50249;SDS011;36133;42.522;27.456;2023-05-13T13:41:45;2.80;;;1.90;;
50249;SDS011;36133;42.522;27.456;2023-05-13T13:44:11;3.58;;;1.98;;
50249;SDS011;36133;42.522;27.456;2023-05-13T13:46:37;5.53;;;2.08;;
50249;SDS011;36133;42.522;27.456;2023-05-13T13:49:03;15.75;;;2.47;;
50249;SDS011;36133;42.522;27.456;2023-05-13T13:51:31;7.88;;;2.13;;
50249;SDS011;36133;42.522;27.456;2023-05-13T13:54:04;7.40;;;2.40;;
50249;SDS011;36133;42.522;27.456;2023-05-13T13:56:30;4.95;;;2.15;;
50249;SDS011;36133;42.522;27.456;2023-05-13T13:58:55;4.70;;;1.83;;
50249;SDS011;36133;42.522;27.456;2023-05-13T14:01:21;3.95;;;2.25;;
50249;SDS011;36133;42.522;27.456;2023-05-13T14:03:51;6.03;;;2.40;;
50249;SDS011;36133;42.522;27.456;2023-05-13T14:06:17;7.07;;;2.40;;
50249;SDS011;36133;42.522;27.456;2023-05-13T14:08:43;3.95;;;2.20;;
50249;SDS011;36133;42.522;27.456;2023-05-13T14:11:09;7.40;;;2.58;;
50249;SDS011;36133;42.522;27.456;2023-05-13T14:13:35;4.63;;;2.05;;
50249;SDS011;36133;42.522;27.456;2023-05-13T14:16:00;4.50;;;2.50;;
50249;SDS011;36133;42.522;27.456;2023-05-13T14:18:29;7.68;;;3.03;;
50249;SDS011;36133;42.522;27.456;2023-05-13T14:20:55;8.13;;;2.55;;
50249;SDS011;36133;42.522;27.456;2023-05-13T14:23:20;7.70;;;2.50;;
50249;SDS011;36133;42.522;27.456;2023-05-13T14:25:46;5.72;;;2.40;;
50249;SDS011;36133;42.522;27.456;2023-05-13T14:28:11;4.68;;;2.58;;
50249;SDS011;36133;42.522;27.456;2023-05-13T14:30:41;5.40;;;2.70;;
50249;SDS011;36133;42.522;27.456;2023-05-13T14:33:07;6.28;;;2.22;;
50249;SDS011;36133;42.522;27.456;2023-05-13T14:35:33;4.45;;;2.38;;
50249;SDS011;36133;42.522;27.456;2023-05-13T14:37:58;5.82;;;2.50;;
50249;SDS011;36133;42.522;27.456;2023-05-13T14:40:24;4.82;;;2.38;;
50249;SDS011;36133;42.522;27.456;2023-05-13T14:42:50;6.53;;;2.25;;